createdAt,value
2022-09-03T00:00:25.270Z,20.06
2022-09-03T00:02:59.942Z,19.74
2022-09-03T00:05:36.816Z,19.96
2022-09-03T00:08:08.676Z,20.06
2022-09-03T00:10:42.864Z,19.55
2022-09-03T00:13:10.912Z,19.77
2022-09-03T00:15:41.356Z,19.80
2022-09-03T00:18:12.116Z,19.29
2022-09-03T00:20:43.569Z,19.29
2022-09-03T00:23:16.447Z,19.66
2022-09-03T00:25:46.566Z,19.57
2022-09-03T00:28:18.693Z,19.70
2022-09-03T00:30:47.447Z,19.62
2022-09-03T00:33:21.812Z,19.66
2022-09-03T00:35:54.060Z,19.86
2022-09-03T00:38:22.177Z,19.29
2022-09-03T00:41:07.723Z,19.77
2022-09-03T00:43:48.067Z,19.32
2022-09-03T00:46:22.361Z,19.64
2022-09-03T00:49:00.700Z,19.55
2022-09-03T00:51:35.960Z,19.18
2022-09-03T00:54:07.283Z,19.22
2022-09-03T00:56:39.468Z,19.40
2022-09-03T00:59:19.212Z,19.25
2022-09-03T01:01:52.234Z,19.14
2022-09-03T01:04:30.205Z,19.42
2022-09-03T01:07:07.024Z,19.07
2022-09-03T01:09:48.890Z,18.81
2022-09-03T01:12:21.753Z,18.84
2022-09-03T01:14:59.793Z,19.15
2022-09-03T01:17:38.190Z,19.31
2022-09-03T01:20:15.822Z,19.18
2022-09-03T01:23:20.278Z,19.04
2022-09-03T01:25:54.560Z,18.93
2022-09-03T01:28:43.753Z,18.89
2022-09-03T01:31:19.110Z,18.79
2022-09-03T01:33:51.831Z,19.05
2022-09-03T01:36:24.300Z,19.07
2022-09-03T01:38:56.273Z,18.89
2022-09-03T01:41:47.495Z,19.28
2022-09-03T01:44:23.492Z,18.98
2022-09-03T01:46:55.372Z,19.09
2022-09-03T01:49:25.869Z,19.04
2022-09-03T01:51:59.993Z,18.86
2022-09-03T01:54:37.390Z,18.71
2022-09-03T01:57:31.280Z,18.74
2022-09-03T02:00:08.253Z,18.75
2022-09-03T02:02:36.883Z,18.43
2022-09-03T02:05:07.928Z,18.97
2022-09-03T02:07:38.085Z,19.11
2022-09-03T02:10:08.823Z,18.98
2022-09-03T02:12:38.363Z,19.00
2022-09-03T02:15:12.326Z,18.90
2022-09-03T02:17:42.732Z,18.77
2022-09-03T02:20:12.751Z,18.85
2022-09-03T02:22:40.764Z,19.01
2022-09-03T02:25:10.917Z,18.81
2022-09-03T02:27:38.997Z,18.86
2022-09-03T02:30:09.999Z,19.07
2022-09-03T02:32:37.790Z,18.80
2022-09-03T02:35:05.981Z,18.93
2022-09-03T02:37:34.867Z,18.97
2022-09-03T02:40:06.600Z,18.36
2022-09-03T02:42:34.331Z,18.44
2022-09-03T02:45:10.779Z,18.17
2022-09-03T02:47:41.784Z,18.52
2022-09-03T02:50:10.436Z,17.91
2022-09-03T02:52:38.464Z,18.00
2022-09-03T02:55:07.319Z,18.24
2022-09-03T02:57:35.071Z,17.78
2022-09-03T03:00:03.128Z,17.90
2022-09-03T03:02:30.925Z,18.23
2022-09-03T03:05:00.179Z,17.94
2022-09-03T03:07:31.376Z,18.13
2022-09-03T03:09:59.765Z,17.86
2022-09-03T03:12:27.484Z,17.87
2022-09-03T03:14:55.215Z,17.62
2022-09-03T03:17:22.926Z,18.05
2022-09-03T03:19:50.649Z,18.00
2022-09-03T03:22:19.683Z,18.11
2022-09-03T03:24:50.329Z,18.00
2022-09-03T03:27:18.862Z,17.87
2022-09-03T03:29:46.574Z,17.89
2022-09-03T03:32:14.288Z,17.80
2022-09-03T03:34:41.978Z,17.70
2022-09-03T03:37:09.688Z,17.88
2022-09-03T03:39:38.786Z,17.47
2022-09-03T03:42:06.632Z,17.42
2022-09-03T03:44:34.337Z,17.42
2022-09-03T03:47:03.045Z,17.51
2022-09-03T03:49:30.744Z,17.71
2022-09-03T03:51:58.479Z,17.17
2022-09-03T03:54:26.500Z,17.90
2022-09-03T03:56:55.940Z,17.86
2022-09-03T03:59:23.702Z,17.72
2022-09-03T04:01:52.371Z,17.85
2022-09-03T04:04:20.179Z,17.59
2022-09-03T04:06:48.376Z,17.35
2022-09-03T04:09:16.080Z,17.60
2022-09-03T04:11:43.784Z,17.67
2022-09-03T04:14:12.867Z,17.61
2022-09-03T04:16:40.673Z,17.86
2022-09-03T04:19:08.447Z,17.79
2022-09-03T04:21:36.687Z,17.60
2022-09-03T04:24:06.065Z,17.76
2022-09-03T04:26:34.620Z,17.68
2022-09-03T04:29:06.119Z,17.71
2022-09-03T04:31:36.463Z,17.22
2022-09-03T04:34:06.466Z,17.44
2022-09-03T04:36:34.925Z,17.61
2022-09-03T04:39:04.109Z,17.66
2022-09-03T04:41:32.784Z,17.59
2022-09-03T04:44:00.869Z,17.79
2022-09-03T04:46:33.191Z,17.84
2022-09-03T04:49:04.083Z,17.95
2022-09-03T04:51:31.944Z,17.95
2022-09-03T04:54:01.201Z,17.75
2022-09-03T04:56:30.251Z,17.69
2022-09-03T04:58:59.622Z,17.79
2022-09-03T05:01:31.615Z,17.98
2022-09-03T05:04:00.104Z,18.06
2022-09-03T05:06:30.704Z,17.93
2022-09-03T05:08:58.944Z,18.00
2022-09-03T05:11:27.825Z,17.79
2022-09-03T05:13:56.828Z,17.86
2022-09-03T05:16:25.608Z,17.99
2022-09-03T05:18:53.960Z,18.22
2022-09-03T05:21:22.590Z,18.16
2022-09-03T05:23:52.703Z,18.21
2022-09-03T05:26:21.964Z,18.31
2022-09-03T05:28:49.946Z,18.42
2022-09-03T05:31:19.505Z,18.14
2022-09-03T05:33:48.368Z,18.13
2022-09-03T05:36:17.382Z,18.08
2022-09-03T05:38:45.632Z,18.04
2022-09-03T05:41:15.620Z,18.11
2022-09-03T05:43:44.486Z,17.91
2022-09-03T05:46:13.983Z,18.14
2022-09-03T05:48:43.029Z,17.68
2022-09-03T05:51:12.721Z,17.58
2022-09-03T05:53:41.313Z,17.69
2022-09-03T05:56:12.184Z,17.66
2022-09-03T05:58:44.177Z,17.91
2022-09-03T06:01:14.157Z,17.69
2022-09-03T06:03:42.962Z,17.60
2022-09-03T06:06:11.248Z,17.73
2022-09-03T06:08:39.208Z,17.34
2022-09-03T06:11:07.566Z,17.67
2022-09-03T06:13:35.527Z,17.68
2022-09-03T06:16:08.838Z,17.61
2022-09-03T06:18:36.830Z,17.58
2022-09-03T06:21:06.715Z,17.87
2022-09-03T06:23:35.227Z,17.97
2022-09-03T06:26:06.154Z,17.93
2022-09-03T06:28:35.967Z,17.82
2022-09-03T06:31:06.943Z,17.83
2022-09-03T06:33:36.884Z,17.73
2022-09-03T06:36:08.860Z,17.66
2022-09-03T06:38:38.902Z,17.69
2022-09-03T06:41:08.202Z,17.72
2022-09-03T06:43:37.589Z,17.75
2022-09-03T06:46:08.678Z,17.75
2022-09-03T06:48:37.101Z,17.73
2022-09-03T06:51:07.120Z,17.97
2022-09-03T06:53:35.978Z,18.08
2022-09-03T06:56:07.742Z,18.05
2022-09-03T06:58:43.120Z,17.96
2022-09-03T07:01:14.426Z,18.02
2022-09-03T07:03:43.681Z,18.16
2022-09-03T07:06:13.219Z,18.12
2022-09-03T07:08:42.392Z,18.15
2022-09-03T07:11:11.958Z,18.17
2022-09-03T07:13:41.675Z,18.14
2022-09-03T07:16:10.965Z,18.00
2022-09-03T07:18:40.658Z,18.23
2022-09-03T07:21:10.931Z,18.27
2022-09-03T07:23:39.498Z,18.40
2022-09-03T07:26:11.152Z,18.30
2022-09-03T07:28:40.430Z,18.56
2022-09-03T07:31:11.613Z,18.51
2022-09-03T07:33:40.720Z,18.73
2022-09-03T07:36:10.014Z,18.67
2022-09-03T07:38:38.154Z,18.77
2022-09-03T07:41:08.115Z,18.83
2022-09-03T07:43:37.063Z,19.12
2022-09-03T07:46:04.781Z,19.11
2022-09-03T07:48:37.192Z,19.30
2022-09-03T07:51:07.171Z,19.59
2022-09-03T07:53:35.096Z,19.78
2022-09-03T07:56:04.172Z,19.88
2022-09-03T07:58:32.615Z,19.87
2022-09-03T08:01:00.641Z,20.19
2022-09-03T08:03:29.641Z,20.32
2022-09-03T08:06:03.404Z,20.62
2022-09-03T08:08:34.545Z,20.70
2022-09-03T08:11:10.852Z,20.69
2022-09-03T08:13:40.724Z,20.80
2022-09-03T08:16:09.368Z,20.85
2022-09-03T08:18:39.104Z,20.88
2022-09-03T08:21:08.361Z,20.99
2022-09-03T08:23:39.440Z,21.13
2022-09-03T08:26:07.881Z,21.18
2022-09-03T08:28:36.067Z,21.20
2022-09-03T08:31:10.045Z,21.20
2022-09-03T08:33:38.269Z,21.19
2022-09-03T08:36:07.791Z,21.31
2022-09-03T08:38:36.603Z,21.39
2022-09-03T08:41:08.512Z,21.48
2022-09-03T08:43:44.793Z,21.67
2022-09-03T08:46:12.832Z,21.73
2022-09-03T08:48:40.583Z,21.89
2022-09-03T08:51:09.483Z,21.75
2022-09-03T08:53:45.223Z,21.82
2022-09-03T08:56:20.625Z,21.82
2022-09-03T08:58:48.358Z,22.07
2022-09-03T09:01:26.657Z,21.89
2022-09-03T09:03:58.345Z,21.97
2022-09-03T09:06:31.108Z,21.99
2022-09-03T09:09:04.819Z,22.22
2022-09-03T09:11:47.731Z,22.31
2022-09-03T09:14:20.655Z,22.24
2022-09-03T09:16:53.444Z,22.26
2022-09-03T09:19:31.583Z,22.19
2022-09-03T09:22:03.039Z,22.30
2022-09-03T09:24:38.128Z,22.61
2022-09-03T09:27:07.700Z,22.51
2022-09-03T09:29:37.608Z,22.57
2022-09-03T09:32:06.204Z,22.45
2022-09-03T09:34:36.690Z,22.63
2022-09-03T09:37:06.400Z,22.65
2022-09-03T09:39:34.123Z,22.77
2022-09-03T09:42:08.173Z,22.64
2022-09-03T09:44:38.049Z,22.75
2022-09-03T09:47:08.428Z,22.57
2022-09-03T09:49:37.643Z,22.80
2022-09-03T09:52:11.855Z,22.63
2022-09-03T09:54:40.679Z,22.90
2022-09-03T09:57:18.464Z,22.97
2022-09-03T09:59:46.917Z,22.91
2022-09-03T10:02:21.887Z,23.02
2022-09-03T10:04:50.003Z,23.13
2022-09-03T10:07:24.071Z,22.90
2022-09-03T10:10:03.066Z,23.00
2022-09-03T10:12:35.859Z,23.03
2022-09-03T10:15:13.928Z,23.17
2022-09-03T10:17:48.650Z,23.38
2022-09-03T10:20:31.079Z,23.26
2022-09-03T10:23:02.461Z,23.35
2022-09-03T10:25:39.004Z,23.38
2022-09-03T10:28:10.578Z,23.57
2022-09-03T10:30:54.056Z,23.48
2022-09-03T10:33:25.407Z,23.31
2022-09-03T10:35:55.112Z,23.35
2022-09-03T10:38:28.568Z,23.56
2022-09-03T10:41:04.787Z,23.64
2022-09-03T10:43:48.024Z,23.37
2022-09-03T10:46:23.393Z,23.38
2022-09-03T10:49:08.223Z,23.29
2022-09-03T10:51:37.982Z,23.16
2022-09-03T10:54:20.682Z,23.08
2022-09-03T10:56:54.715Z,23.37
2022-09-03T10:59:37.313Z,23.21
2022-09-03T11:02:22.583Z,23.42
2022-09-03T11:04:54.892Z,23.55
2022-09-03T11:07:25.284Z,23.30
2022-09-03T11:09:58.143Z,23.54
2022-09-03T11:12:29.484Z,23.47
2022-09-03T11:15:03.113Z,23.23
2022-09-03T11:17:35.049Z,23.61
2022-09-03T11:20:12.406Z,23.00
2022-09-03T11:22:43.202Z,23.13
2022-09-03T11:25:12.783Z,23.14
2022-09-03T11:27:56.585Z,23.37
2022-09-03T11:30:29.491Z,23.34
2022-09-03T11:33:00.416Z,23.56
2022-09-03T11:35:30.016Z,23.50
2022-09-03T11:38:00.717Z,23.61
2022-09-03T11:40:34.817Z,23.75
2022-09-03T11:43:13.871Z,23.57
2022-09-03T11:45:43.129Z,23.27
2022-09-03T11:48:33.075Z,23.44
2022-09-03T11:51:00.788Z,23.32
2022-09-03T11:53:35.444Z,23.44
2022-09-03T11:56:18.108Z,23.16
2022-09-03T11:58:47.478Z,23.36
2022-09-03T12:01:19.020Z,23.39
2022-09-03T12:03:49.919Z,23.44
2022-09-03T12:06:44.355Z,23.47
2022-09-03T12:09:46.110Z,23.00
2022-09-03T12:12:28.011Z,23.28
2022-09-03T12:15:00.156Z,23.33
2022-09-03T12:17:33.983Z,23.22
2022-09-03T12:20:03.572Z,23.59
2022-09-03T12:22:31.759Z,23.64
2022-09-03T12:25:08.953Z,23.72
2022-09-03T12:27:39.935Z,23.68
2022-09-03T12:30:16.706Z,23.70
2022-09-03T12:32:46.420Z,23.48
2022-09-03T12:35:58.101Z,23.59
2022-09-03T12:38:07.552Z,23.54
2022-09-03T12:40:36.165Z,23.88
2022-09-03T12:43:49.891Z,23.76
2022-09-03T12:46:17.596Z,23.19
2022-09-03T12:51:52.491Z,23.31
2022-09-03T12:54:23.184Z,23.17
2022-09-03T12:56:55.019Z,22.96
2022-09-03T12:59:23.943Z,23.01
2022-09-03T13:01:53.158Z,23.17
2022-09-03T13:04:26.774Z,22.87
2022-09-03T13:06:57.144Z,23.10
2022-09-03T13:09:29.783Z,23.53
2022-09-03T13:11:59.051Z,23.62
2022-09-03T13:14:27.800Z,23.71
2022-09-03T13:17:09.653Z,23.84
2022-09-03T13:19:45.152Z,23.81
2022-09-03T13:22:17.871Z,23.60
2022-09-03T13:24:56.880Z,23.86
2022-09-03T13:27:29.729Z,23.95
2022-09-03T13:30:06.876Z,23.86
2022-09-03T13:32:43.189Z,23.34
2022-09-03T13:35:18.600Z,23.45
2022-09-03T13:37:49.180Z,23.81
2022-09-03T13:40:21.829Z,24.11
2022-09-03T13:42:54.321Z,24.11
2022-09-03T13:45:29.349Z,24.12
2022-09-03T13:48:18.573Z,23.89
2022-09-03T13:50:51.462Z,23.83
2022-09-03T13:53:23.480Z,23.93
2022-09-03T13:55:54.227Z,23.76
2022-09-03T13:58:27.676Z,23.78
2022-09-03T14:01:08.800Z,23.90
2022-09-03T14:03:45.666Z,24.04
2022-09-03T14:06:27.382Z,24.02
2022-09-03T14:09:04.840Z,24.14
2022-09-03T14:11:38.922Z,24.09
2022-09-03T14:14:14.963Z,24.04
2022-09-03T14:16:46.163Z,23.92
2022-09-03T14:19:17.072Z,24.10
2022-09-03T14:21:49.127Z,24.24
2022-09-03T14:24:22.087Z,24.16
2022-09-03T14:26:52.567Z,24.30
2022-09-03T14:29:22.275Z,24.11
2022-09-03T14:32:05.778Z,23.99
2022-09-03T14:34:43.925Z,24.28
2022-09-03T14:37:22.249Z,24.32
2022-09-03T14:39:53.977Z,24.42
2022-09-03T14:42:38.081Z,24.25
2022-09-03T14:45:25.505Z,24.25
2022-09-03T14:48:06.428Z,24.25
2022-09-03T14:50:46.091Z,24.34
2022-09-03T14:53:38.341Z,24.47
2022-09-03T14:56:21.883Z,24.42
2022-09-03T14:59:13.864Z,24.35
2022-09-03T15:01:42.188Z,24.34
2022-09-03T15:04:39.332Z,24.41
2022-09-03T15:07:18.055Z,24.29
2022-09-03T15:09:54.616Z,24.27
2022-09-03T15:12:24.835Z,24.32
2022-09-03T15:14:55.023Z,24.16
2022-09-03T15:17:34.712Z,24.12
2022-09-03T15:20:17.356Z,24.05
2022-09-03T15:23:13.194Z,23.69
2022-09-03T15:25:54.133Z,23.81
2022-09-03T15:28:26.016Z,23.89
2022-09-03T15:30:57.848Z,23.82
2022-09-03T15:33:31.659Z,23.79
2022-09-03T15:36:12.544Z,23.85
2022-09-03T15:38:50.737Z,24.10
2022-09-03T15:41:39.841Z,23.81
2022-09-03T15:44:10.472Z,24.11
2022-09-03T15:46:50.572Z,24.03
2022-09-03T15:49:25.554Z,24.11
2022-09-03T15:52:00.998Z,24.08
2022-09-03T15:54:36.215Z,23.91
2022-09-03T15:57:09.108Z,23.95
2022-09-03T15:59:41.524Z,24.13
2022-09-03T16:02:12.745Z,24.08
2022-09-03T16:04:52.068Z,23.86
2022-09-03T16:07:23.619Z,23.73
2022-09-03T16:10:23.347Z,23.81
2022-09-03T16:12:59.449Z,24.08
2022-09-03T16:15:29.985Z,23.92
2022-09-03T16:18:00.429Z,23.70
2022-09-03T16:20:35.057Z,23.75
2022-09-03T16:23:07.099Z,23.84
2022-09-03T16:25:38.497Z,23.78
2022-09-03T16:28:15.004Z,23.71
2022-09-03T16:30:53.703Z,23.52
2022-09-03T16:33:27.759Z,23.31
2022-09-03T16:35:59.773Z,23.45
2022-09-03T16:38:35.163Z,23.49
2022-09-03T16:41:15.424Z,23.59
2022-09-03T16:43:47.432Z,23.49
2022-09-03T16:46:24.138Z,23.49
2022-09-03T16:49:06.006Z,23.36
2022-09-03T16:51:41.657Z,23.34
2022-09-03T16:54:20.291Z,23.35
2022-09-03T16:56:55.767Z,23.42
2022-09-03T16:59:54.375Z,23.24
2022-09-03T17:02:49.667Z,23.47
2022-09-03T17:05:28.648Z,23.10
2022-09-03T17:08:06.876Z,22.99
2022-09-03T17:10:41.697Z,23.14
2022-09-03T17:13:23.883Z,23.25
2022-09-03T17:15:55.809Z,23.19
2022-09-03T17:18:34.090Z,22.98
2022-09-03T17:21:13.377Z,22.96
2022-09-03T17:24:04.564Z,23.19
2022-09-03T17:26:36.159Z,23.07
2022-09-03T17:29:14.454Z,23.23
2022-09-03T17:31:51.194Z,23.22
2022-09-03T17:34:35.180Z,22.95
2022-09-03T17:37:09.747Z,22.80
2022-09-03T17:39:53.360Z,23.03
2022-09-03T17:42:28.793Z,23.13
2022-09-03T17:45:06.885Z,23.07
2022-09-03T17:48:06.636Z,22.96
2022-09-03T17:50:45.088Z,22.99
2022-09-03T17:53:20.145Z,23.01
2022-09-03T17:55:55.185Z,23.06
2022-09-03T17:58:28.087Z,23.17
2022-09-03T18:01:04.733Z,23.37
2022-09-03T18:03:42.118Z,22.99
2022-09-03T18:06:12.192Z,23.06
2022-09-03T18:08:47.385Z,23.02
2022-09-03T18:11:20.926Z,23.10
2022-09-03T18:13:52.336Z,23.17
2022-09-03T18:16:26.200Z,23.30
2022-09-03T18:19:01.563Z,23.16
2022-09-03T18:21:51.928Z,22.98
2022-09-03T18:24:43.996Z,23.04
2022-09-03T18:27:32.745Z,22.94
2022-09-03T18:30:21.809Z,23.08
2022-09-03T18:33:07.404Z,23.22
2022-09-03T18:35:54.867Z,23.09
2022-09-03T18:38:44.564Z,23.26
2022-09-03T18:41:59.366Z,23.10
2022-09-03T18:45:18.234Z,23.07
2022-09-03T18:48:15.295Z,23.11
2022-09-03T18:51:09.836Z,23.17
2022-09-03T18:54:04.322Z,23.15
2022-09-03T18:56:56.653Z,22.94
2022-09-03T18:59:58.360Z,23.05
2022-09-03T19:02:52.559Z,23.11
2022-09-03T19:05:43.412Z,23.10
2022-09-03T19:08:33.574Z,22.75
2022-09-03T19:11:23.455Z,22.99
2022-09-03T19:14:09.670Z,22.92
2022-09-03T19:17:03.500Z,22.95
2022-09-03T19:20:09.028Z,22.78
2022-09-03T19:22:55.957Z,22.86
2022-09-03T19:25:44.209Z,22.85
2022-09-03T19:28:32.582Z,22.71
2022-09-03T19:31:33.841Z,22.48
2022-09-03T19:34:24.756Z,22.59
2022-09-03T19:37:16.636Z,22.47
2022-09-03T19:40:13.506Z,22.74
2022-09-03T19:43:08.283Z,22.54
2022-09-03T19:45:58.570Z,22.64
2022-09-03T19:48:53.873Z,22.52
2022-09-03T19:51:41.144Z,22.65
2022-09-03T19:54:27.392Z,22.22
2022-09-03T19:57:13.780Z,22.31
2022-09-03T20:00:03.813Z,22.21
2022-09-03T20:02:49.352Z,22.12
2022-09-03T20:05:37.288Z,22.36
2022-09-03T20:08:23.443Z,22.24
2022-09-03T20:10:53.508Z,22.49
2022-09-03T20:13:21.930Z,22.38
2022-09-03T20:15:58.103Z,22.03
2022-09-03T20:18:35.555Z,22.21
2022-09-03T20:21:11.221Z,22.04
2022-09-03T20:23:42.693Z,22.10
2022-09-03T20:26:21.179Z,21.97
2022-09-03T20:29:12.236Z,22.17
2022-09-03T20:31:49.164Z,22.17
2022-09-03T20:34:27.076Z,22.16
2022-09-03T20:36:58.310Z,22.00
2022-09-03T20:39:34.682Z,22.16
2022-09-03T20:42:17.669Z,22.07
2022-09-03T20:44:54.040Z,22.23
2022-09-03T20:47:45.595Z,21.82
2022-09-03T20:50:24.499Z,21.87
2022-09-03T20:53:03.526Z,21.84
2022-09-03T20:55:35.472Z,21.86
2022-09-03T20:58:09.684Z,22.06
2022-09-03T21:00:50.040Z,22.16
2022-09-03T21:03:23.272Z,22.07
2022-09-03T21:06:03.452Z,22.09
2022-09-03T21:08:53.416Z,22.14
2022-09-03T21:11:29.793Z,22.01
2022-09-03T21:14:04.130Z,22.10
2022-09-03T21:16:39.066Z,21.99
2022-09-03T21:19:12.618Z,21.88
2022-09-03T21:21:48.826Z,21.77
2022-09-03T21:24:20.635Z,21.32
2022-09-03T21:26:51.893Z,21.46
2022-09-03T21:29:23.875Z,21.31
2022-09-03T21:31:56.190Z,21.47
2022-09-03T21:34:30.903Z,21.27
2022-09-03T21:36:58.676Z,21.57
2022-09-03T21:39:29.734Z,21.37
2022-09-03T21:42:03.103Z,21.24
2022-09-03T21:44:48.327Z,21.24
2022-09-03T21:47:17.304Z,20.97
2022-09-03T21:49:56.458Z,21.03
2022-09-03T21:52:29.799Z,21.09
2022-09-03T21:54:57.555Z,20.79
2022-09-03T21:57:32.779Z,20.84
2022-09-03T22:00:11.334Z,20.87
2022-09-03T22:02:39.458Z,21.05
2022-09-03T22:05:09.021Z,20.97
2022-09-03T22:07:50.756Z,20.57
2022-09-03T22:10:26.727Z,21.12
2022-09-03T22:13:00.730Z,21.03
2022-09-03T22:15:33.097Z,20.61
2022-09-03T22:18:03.972Z,20.48
2022-09-03T22:20:33.275Z,20.91
2022-09-03T22:23:04.440Z,20.85
2022-09-03T22:25:37.281Z,21.16
2022-09-03T22:28:12.916Z,21.05
2022-09-03T22:30:45.763Z,20.93
2022-09-03T22:33:19.090Z,21.11
2022-09-03T22:35:59.394Z,20.67
2022-09-03T22:38:53.277Z,20.56
2022-09-03T22:41:36.823Z,20.72
2022-09-03T22:44:09.174Z,20.71
2022-09-03T22:46:43.909Z,20.68
2022-09-03T22:49:17.881Z,20.72
2022-09-03T22:52:00.422Z,20.95
2022-09-03T22:54:37.599Z,21.19
2022-09-03T22:57:09.576Z,21.26
2022-09-03T22:59:40.171Z,21.25
2022-09-03T23:02:15.160Z,21.08
2022-09-03T23:04:48.640Z,21.15
2022-09-03T23:07:21.840Z,21.20
2022-09-03T23:09:54.042Z,21.18
2022-09-03T23:12:27.356Z,21.09
2022-09-03T23:14:58.603Z,21.14
2022-09-03T23:22:36.256Z,21.07
2022-09-03T23:25:07.411Z,21.19
2022-09-03T23:27:40.053Z,21.02
2022-09-03T23:30:08.945Z,21.04
2022-09-03T23:32:36.699Z,20.99
2022-09-03T23:35:09.157Z,21.03
2022-09-03T23:37:54.259Z,20.76
2022-09-03T23:40:30.824Z,20.91
2022-09-03T23:43:25.138Z,20.71
2022-09-03T23:46:01.244Z,20.94
2022-09-03T23:48:40.087Z,20.42
2022-09-03T23:51:12.686Z,20.80
2022-09-03T23:53:50.720Z,20.90
2022-09-03T23:56:39.392Z,20.67
2022-09-03T23:59:16.422Z,20.62
